Portada
METAR-TAF:

METAR-TAF

Aeroports :

Columbia, Carolina del Sud, Estats Units d'Amèrica

latitud: 33-58-15N, longitud: 080-59-40W, altitud: 64 m

Observació

L'informe es va fer fa 40 minuts, a les 21:53 UTC
Vent 4 kt amb direcció variable
Temperatura 7°C
Humitat 33%
Pressió 1027 hPa
Visibilitat: 16.1 km
Cel clar

METAR: KCUB 132153Z AUTO VRB04KT 10SM CLR 07/M08 A3033 RMK AO2 SLP272 T00671083 $

Hora: 17:33 (22:33 UTC)

Pronòstic

L'informe es va fer fa 54 minuts, a les 21:39 UTC
Pronòstic vàlid del 13 a les 22 UTC al 14 a les 18 UTC
Vent 5 kt del Est/Nord-Est
Visibilitat: 10 km
Cel clar
A partir de les 13 a les 2300 UTC
Vent kt del Nord
Visibilitat: 10 km
Cel clar
A partir de les 14 a les 1000 UTC
Vent 3 kt del Nord-Est
Visibilitat: 10 km
Cel ennuvolat a una alçada de 5000 ft

TAF: KCUB 132139Z 1322/1418 07005KT P6SM SKC FM132300 00000KT P6SM SKC FM141000 05003KT P6SM BKN050

Observacions i pronòstics meteorològics de més de 4000 aeroports (METAR i TAF).

Les estacions disponibles són els punts grocs i vermells al mapa.

Posi el ratolí al punt desitjat per veure el nom de l'estació.

Feu clic per veure les observacions i els pronòstics meteorològics.

Per canviar el mapa: feu clic els botons verds amb una creu de color negre per apropar; al botó verd amb un guió per allunyar la imatge; o en les fletxes verdes per a mapes adjacents.


METAR-TAF: